createdAt,value
2018-11-06T00:03:11.510Z,9.8
2018-11-06T00:08:14.006Z,9.8
2018-11-06T00:13:16.384Z,9.8
2018-11-06T00:18:18.826Z,9.7
2018-11-06T00:23:21.271Z,9.7
2018-11-06T00:28:23.719Z,9.7
2018-11-06T00:33:26.147Z,9.7
2018-11-06T00:38:28.609Z,9.7
2018-11-06T00:43:31.018Z,9.6
2018-11-06T00:48:33.483Z,9.7
2018-11-06T00:53:35.904Z,9.7
2018-11-06T00:58:38.339Z,9.7
2018-11-06T01:03:40.836Z,9.7
2018-11-06T01:08:43.232Z,9.6
2018-11-06T01:13:45.686Z,9.6
2018-11-06T01:18:48.149Z,9.6
2018-11-06T01:23:50.539Z,9.6
2018-11-06T01:28:52.993Z,9.6
2018-11-06T01:33:55.428Z,9.5
2018-11-06T01:38:57.965Z,9.5
2018-11-06T01:44:00.308Z,9.4
2018-11-06T01:49:02.752Z,9.4
2018-11-06T01:54:05.326Z,9.4
2018-11-06T01:59:07.634Z,9.4
2018-11-06T02:04:10.065Z,9.4
2018-11-06T02:09:12.505Z,9.4
2018-11-06T02:14:14.958Z,9.4
2018-11-06T02:19:17.442Z,9.4
2018-11-06T02:24:19.830Z,9.4
2018-11-06T02:29:22.266Z,9.4
2018-11-06T02:34:24.714Z,9.4
2018-11-06T02:39:27.153Z,9.4
2018-11-06T02:44:29.596Z,9.4
2018-11-06T02:49:32.032Z,9.4
2018-11-06T02:54:34.469Z,9.3
2018-11-06T02:59:36.905Z,9.3
2018-11-06T03:04:39.364Z,9.3
2018-11-06T03:09:41.800Z,9.2
2018-11-06T03:14:44.229Z,9.2
2018-11-06T03:19:46.671Z,9.2
2018-11-06T03:24:49.110Z,9.2
2018-11-06T03:29:51.551Z,9.2
2018-11-06T03:34:53.993Z,9.1
2018-11-06T03:39:56.429Z,9.1
2018-11-06T03:44:58.873Z,9
2018-11-06T03:50:01.337Z,9
2018-11-06T03:55:03.750Z,9
2018-11-06T04:00:06.221Z,9
2018-11-06T04:05:08.645Z,9
2018-11-06T04:10:11.092Z,9
2018-11-06T04:15:13.511Z,9
2018-11-06T04:20:15.956Z,9
2018-11-06T04:25:18.391Z,9
2018-11-06T04:30:20.926Z,9
2018-11-06T04:35:23.283Z,8.9
2018-11-06T04:40:25.711Z,9
2018-11-06T04:45:28.164Z,9
2018-11-06T04:50:30.631Z,9
2018-11-06T04:55:33.040Z,8.9
2018-11-06T05:00:35.597Z,8.9
2018-11-06T05:05:38.009Z,8.8
2018-11-06T05:10:40.528Z,8.8
2018-11-06T05:15:42.937Z,8.8
2018-11-06T05:20:45.267Z,8.7
2018-11-06T05:25:47.745Z,8.8
2018-11-06T05:30:50.221Z,8.7
2018-11-06T05:35:52.687Z,8.7
2018-11-06T05:40:55.079Z,8.7
2018-11-06T05:45:57.443Z,8.7
2018-11-06T05:50:59.891Z,8.7
2018-11-06T05:56:02.343Z,8.7
2018-11-06T06:01:04.785Z,8.6
2018-11-06T06:06:07.209Z,8.6
2018-11-06T06:11:09.731Z,8.6
2018-11-06T06:16:12.119Z,8.6
2018-11-06T06:21:14.527Z,8.6
2018-11-06T06:26:16.963Z,8.6
2018-11-06T06:31:19.420Z,8.6
2018-11-06T06:36:21.844Z,8.5
2018-11-06T06:41:24.298Z,8.6
2018-11-06T06:46:26.784Z,8.6
2018-11-06T06:51:29.231Z,8.6
2018-11-06T06:56:31.617Z,8.7
2018-11-06T07:01:34.126Z,8.7
2018-11-06T07:06:36.493Z,8.8
2018-11-06T07:11:38.921Z,8.8
2018-11-06T07:16:41.356Z,8.9
2018-11-06T07:21:43.820Z,8.9
2018-11-06T07:26:46.243Z,9
2018-11-06T07:31:48.715Z,9
2018-11-06T07:36:51.127Z,9
2018-11-06T07:41:53.559Z,9.1
2018-11-06T07:46:55.998Z,9.1
2018-11-06T07:51:58.457Z,9.2
2018-11-06T07:57:00.913Z,9.3
2018-11-06T08:02:03.357Z,9.4
2018-11-06T08:07:05.762Z,9.5
2018-11-06T08:12:08.211Z,9.6
2018-11-06T08:17:10.651Z,9.7
2018-11-06T08:22:13.108Z,9.8
2018-11-06T08:27:15.552Z,9.9
2018-11-06T08:32:18.390Z,10
2018-11-06T08:37:20.453Z,10.1
2018-11-06T08:42:22.899Z,10.1
2018-11-06T08:47:25.295Z,10.2
2018-11-06T08:52:27.813Z,10.3
2018-11-06T09:02:32.728Z,10.4
2018-11-06T09:07:35.051Z,10.4
2018-11-06T09:12:37.562Z,10.5
2018-11-06T09:17:39.931Z,10.5
2018-11-06T09:22:42.388Z,10.6
2018-11-06T09:27:44.812Z,10.7
2018-11-06T09:32:47.264Z,10.8
2018-11-06T09:37:49.693Z,11
2018-11-06T09:42:52.130Z,11.1
2018-11-06T09:47:54.553Z,11.3
2018-11-06T09:52:57.057Z,11.4
2018-11-06T09:57:59.453Z,11.6
2018-11-06T10:03:01.943Z,11.7
2018-11-06T10:08:04.340Z,11.8
2018-11-06T10:13:06.796Z,11.9
2018-11-06T10:18:09.215Z,12.1
2018-11-06T10:23:11.685Z,12.3
2018-11-06T10:33:16.532Z,12.8
2018-11-06T10:38:19.008Z,13.1
2018-11-06T10:43:21.431Z,13.5
2018-11-06T10:48:23.864Z,13.8
2018-11-06T10:53:26.307Z,14
2018-11-06T10:58:28.752Z,14.6
2018-11-06T11:03:31.181Z,16.1
2018-11-06T11:08:33.621Z,17.7
2018-11-06T11:13:36.065Z,19
2018-11-06T11:18:38.505Z,19.9
2018-11-06T11:23:40.961Z,20.4
2018-11-06T11:28:43.412Z,20.7
2018-11-06T11:33:45.829Z,21
2018-11-06T11:38:48.273Z,21.4
2018-11-06T11:43:50.914Z,21.7
2018-11-06T11:48:53.146Z,21.8
2018-11-06T11:53:55.702Z,21.8
2018-11-06T11:58:58.070Z,22.1
2018-11-06T12:04:00.474Z,22.6
2018-11-06T12:09:03.045Z,23.3
2018-11-06T12:14:05.365Z,23.5
2018-11-06T12:19:07.796Z,23.5
2018-11-06T12:24:10.486Z,24
2018-11-06T12:29:12.693Z,24.2
2018-11-06T12:34:15.131Z,24.2
2018-11-06T12:39:17.563Z,24.4
2018-11-06T12:44:20.010Z,24.7
2018-11-06T12:49:22.461Z,24.7
2018-11-06T12:54:24.929Z,24.8
2018-11-06T12:59:27.330Z,24.7
2018-11-06T13:04:29.776Z,24.6
2018-11-06T13:09:32.231Z,24.2
2018-11-06T13:14:34.676Z,23.3
2018-11-06T13:19:37.112Z,22.6
2018-11-06T13:24:39.662Z,22.1
2018-11-06T13:29:41.991Z,20.8
2018-11-06T13:34:44.469Z,20.1
2018-11-06T13:39:46.871Z,20.3
2018-11-06T13:44:49.756Z,21
2018-11-06T13:49:51.781Z,20.5
2018-11-06T13:54:54.203Z,20.9
2018-11-06T13:59:56.696Z,21.4
2018-11-06T14:04:59.179Z,21.8
2018-11-06T14:10:01.586Z,20.8
2018-11-06T14:15:03.996Z,18.7
2018-11-06T14:20:06.436Z,16.8
2018-11-06T14:25:08.866Z,15.6
2018-11-06T14:30:11.316Z,14.9
2018-11-06T14:35:13.735Z,14.3
2018-11-06T14:40:16.183Z,13.9
2018-11-06T14:45:18.681Z,13.6
2018-11-06T14:50:21.090Z,13.3
2018-11-06T14:55:23.505Z,13.1
2018-11-06T15:00:25.938Z,13
2018-11-06T15:05:28.481Z,12.8
2018-11-06T15:10:31.124Z,12.7
2018-11-06T15:15:33.276Z,12.5
2018-11-06T15:20:35.724Z,12.4
2018-11-06T15:25:38.142Z,12.2
2018-11-06T15:30:40.570Z,12.1
2018-11-06T15:35:43.065Z,12
2018-11-06T15:40:45.496Z,11.9
2018-11-06T15:45:47.909Z,11.8
2018-11-06T15:50:50.341Z,11.7
2018-11-06T15:55:52.808Z,11.6
2018-11-06T16:00:55.217Z,11.6
2018-11-06T16:05:57.661Z,11.5
2018-11-06T16:11:00.106Z,11.5
2018-11-06T16:16:02.551Z,11.4
2018-11-06T16:21:05.125Z,11.4
2018-11-06T16:26:07.429Z,11.4
2018-11-06T16:31:09.862Z,11.3
2018-11-06T16:36:12.301Z,11.3
2018-11-06T16:41:14.745Z,11.3
2018-11-06T16:46:17.187Z,11.3
2018-11-06T16:51:19.614Z,11.3
2018-11-06T16:56:22.070Z,11.2
2018-11-06T17:01:24.524Z,11.2
2018-11-06T17:06:26.958Z,11.2
2018-11-06T17:11:29.407Z,11.1
2018-11-06T17:16:31.829Z,11.1
2018-11-06T17:21:34.269Z,11.1
2018-11-06T17:31:39.232Z,11
2018-11-06T17:36:41.599Z,11
2018-11-06T17:41:44.179Z,11
2018-11-06T17:46:46.502Z,11
2018-11-06T17:51:48.917Z,11
2018-11-06T17:56:51.404Z,11
2018-11-06T18:01:53.794Z,10.9
2018-11-06T18:06:56.223Z,10.9
2018-11-06T18:11:58.799Z,10.9
2018-11-06T18:17:01.135Z,10.9
2018-11-06T18:22:03.565Z,10.9
2018-11-06T18:27:06.010Z,10.9
2018-11-06T18:32:08.516Z,10.9
2018-11-06T18:37:10.871Z,11
2018-11-06T18:42:13.312Z,11
2018-11-06T18:47:15.826Z,10.9
2018-11-06T18:52:18.191Z,10.9
2018-11-06T18:57:20.632Z,10.9
2018-11-06T19:02:23.074Z,11
2018-11-06T19:07:25.499Z,11
2018-11-06T19:12:28.030Z,11
2018-11-06T19:17:30.400Z,11
2018-11-06T19:22:32.827Z,11
2018-11-06T19:27:35.311Z,11
2018-11-06T19:32:37.725Z,11
2018-11-06T19:37:40.165Z,11
2018-11-06T19:42:42.626Z,11
2018-11-06T19:47:45.045Z,11
2018-11-06T19:52:47.508Z,11
2018-11-06T19:57:49.923Z,11
2018-11-06T20:02:52.428Z,11
2018-11-06T20:07:54.792Z,11
2018-11-06T20:12:57.230Z,10.9
2018-11-06T20:17:59.772Z,10.9
2018-11-06T20:23:02.130Z,10.9
2018-11-06T20:28:04.552Z,11
2018-11-06T20:33:07.037Z,11
2018-11-06T20:38:09.553Z,11
2018-11-06T20:43:12.004Z,10.9
2018-11-06T20:48:14.596Z,11
2018-11-06T20:53:16.757Z,11
2018-11-06T20:58:19.190Z,11
2018-11-06T21:03:21.634Z,11
2018-11-06T21:08:24.087Z,11.1
2018-11-06T21:13:26.538Z,11.1
2018-11-06T21:18:29.081Z,11.2
2018-11-06T21:23:31.403Z,11.2
2018-11-06T21:28:33.826Z,11.1
2018-11-06T21:33:36.372Z,11.1
2018-11-06T21:38:38.737Z,11.1
2018-11-06T21:43:41.260Z,11
2018-11-06T21:48:43.593Z,10.9
2018-11-06T21:53:46.025Z,10.9
2018-11-06T21:58:48.547Z,10.9
2018-11-06T22:03:50.976Z,10.9
2018-11-06T22:08:53.348Z,10.8
2018-11-06T22:13:55.876Z,10.8
2018-11-06T22:18:58.237Z,10.8
2018-11-06T22:24:00.674Z,10.8
2018-11-06T22:29:03.109Z,10.7
2018-11-06T22:34:05.556Z,10.7
2018-11-06T22:39:07.988Z,10.7
2018-11-06T22:44:10.452Z,10.6
2018-11-06T22:49:12.939Z,10.6
2018-11-06T22:54:15.317Z,10.6
2018-11-06T22:59:17.759Z,10.6
2018-11-06T23:04:20.196Z,10.6
2018-11-06T23:09:22.630Z,10.6
2018-11-06T23:14:25.086Z,10.5
2018-11-06T23:19:27.510Z,10.5
2018-11-06T23:24:29.967Z,10.5
2018-11-06T23:29:32.387Z,10.5
2018-11-06T23:34:34.844Z,10.4
2018-11-06T23:39:37.274Z,10.4
2018-11-06T23:44:39.724Z,10.3
2018-11-06T23:49:42.169Z,10.3
2018-11-06T23:54:44.611Z,10.3
2018-11-06T23:59:47.037Z,10.3
